sensor_id;sensor_type;location;lat;lon;timestamp;P1;durP1;ratioP1;P2;durP2;ratioP2
6531;SDS011;3299;42.004;24.868;2023-06-26T00:01:40;9.75;;;7.28;;
6531;SDS011;3299;42.004;24.868;2023-06-26T00:04:07;12.07;;;6.43;;
6531;SDS011;3299;42.004;24.868;2023-06-26T00:06:33;10.70;;;6.93;;
6531;SDS011;3299;42.004;24.868;2023-06-26T00:08:58;7.70;;;6.18;;
6531;SDS011;3299;42.004;24.868;2023-06-26T00:11:24;10.43;;;6.80;;
6531;SDS011;3299;42.004;24.868;2023-06-26T00:13:51;9.82;;;7.18;;
6531;SDS011;3299;42.004;24.868;2023-06-26T00:16:16;14.15;;;8.02;;
6531;SDS011;3299;42.004;24.868;2023-06-26T00:18:42;10.63;;;8.02;;
6531;SDS011;3299;42.004;24.868;2023-06-26T00:21:07;16.23;;;8.00;;
6531;SDS011;3299;42.004;24.868;2023-06-26T00:23:33;10.43;;;7.65;;
6531;SDS011;3299;42.004;24.868;2023-06-26T00:26:02;8.63;;;7.40;;
6531;SDS011;3299;42.004;24.868;2023-06-26T00:28:30;16.08;;;7.85;;
6531;SDS011;3299;42.004;24.868;2023-06-26T00:30:55;10.30;;;7.57;;
6531;SDS011;3299;42.004;24.868;2023-06-26T00:33:21;11.50;;;8.30;;
6531;SDS011;3299;42.004;24.868;2023-06-26T00:35:47;11.60;;;8.27;;
6531;SDS011;3299;42.004;24.868;2023-06-26T00:38:12;9.40;;;8.32;;
6531;SDS011;3299;42.004;24.868;2023-06-26T00:40:38;10.88;;;8.05;;
6531;SDS011;3299;42.004;24.868;2023-06-26T00:43:03;13.82;;;8.73;;
6531;SDS011;3299;42.004;24.868;2023-06-26T00:45:28;14.27;;;8.82;;
6531;SDS011;3299;42.004;24.868;2023-06-26T00:47:54;15.55;;;8.75;;
6531;SDS011;3299;42.004;24.868;2023-06-26T00:50:20;13.80;;;8.57;;
6531;SDS011;3299;42.004;24.868;2023-06-26T00:52:46;16.08;;;9.02;;
6531;SDS011;3299;42.004;24.868;2023-06-26T00:55:11;13.43;;;9.30;;
6531;SDS011;3299;42.004;24.868;2023-06-26T00:57:37;13.50;;;9.13;;
6531;SDS011;3299;42.004;24.868;2023-06-26T01:00:03;16.63;;;9.85;;
6531;SDS011;3299;42.004;24.868;2023-06-26T01:02:29;17.55;;;8.82;;
6531;SDS011;3299;42.004;24.868;2023-06-26T01:04:58;15.95;;;9.77;;
6531;SDS011;3299;42.004;24.868;2023-06-26T01:07:28;18.90;;;8.57;;
6531;SDS011;3299;42.004;24.868;2023-06-26T01:09:54;15.25;;;9.95;;
6531;SDS011;3299;42.004;24.868;2023-06-26T01:12:19;14.77;;;8.50;;
6531;SDS011;3299;42.004;24.868;2023-06-26T01:14:45;11.23;;;7.85;;
6531;SDS011;3299;42.004;24.868;2023-06-26T01:17:10;11.57;;;8.70;;
6531;SDS011;3299;42.004;24.868;2023-06-26T01:19:38;15.80;;;8.20;;
6531;SDS011;3299;42.004;24.868;2023-06-26T01:24:42;14.05;;;8.70;;
6531;SDS011;3299;42.004;24.868;2023-06-26T01:27:17;13.52;;;8.25;;
6531;SDS011;3299;42.004;24.868;2023-06-26T01:29:47;13.00;;;8.45;;
6531;SDS011;3299;42.004;24.868;2023-06-26T01:32:14;17.38;;;7.28;;
6531;SDS011;3299;42.004;24.868;2023-06-26T01:34:40;16.83;;;8.45;;
6531;SDS011;3299;42.004;24.868;2023-06-26T01:37:07;12.90;;;8.30;;
6531;SDS011;3299;42.004;24.868;2023-06-26T01:39:32;16.98;;;8.15;;
6531;SDS011;3299;42.004;24.868;2023-06-26T01:41:58;12.60;;;7.70;;
6531;SDS011;3299;42.004;24.868;2023-06-26T01:44:28;16.08;;;8.15;;
6531;SDS011;3299;42.004;24.868;2023-06-26T01:47:02;17.80;;;8.93;;
6531;SDS011;3299;42.004;24.868;2023-06-26T01:55:10;16.40;;;9.10;;
6531;SDS011;3299;42.004;24.868;2023-06-26T01:57:42;14.82;;;8.95;;
6531;SDS011;3299;42.004;24.868;2023-06-26T02:00:10;22.98;;;8.70;;
6531;SDS011;3299;42.004;24.868;2023-06-26T02:02:37;13.68;;;8.27;;
6531;SDS011;3299;42.004;24.868;2023-06-26T02:05:02;11.07;;;8.90;;
6531;SDS011;3299;42.004;24.868;2023-06-26T02:07:28;14.18;;;9.23;;
6531;SDS011;3299;42.004;24.868;2023-06-26T02:09:53;13.68;;;8.18;;
6531;SDS011;3299;42.004;24.868;2023-06-26T02:12:19;12.13;;;8.15;;
6531;SDS011;3299;42.004;24.868;2023-06-26T02:14:44;15.05;;;8.75;;
6531;SDS011;3299;42.004;24.868;2023-06-26T02:17:10;15.30;;;9.00;;
6531;SDS011;3299;42.004;24.868;2023-06-26T02:19:35;15.55;;;9.10;;
6531;SDS011;3299;42.004;24.868;2023-06-26T02:22:01;11.75;;;8.63;;
6531;SDS011;3299;42.004;24.868;2023-06-26T02:24:26;12.55;;;8.57;;
6531;SDS011;3299;42.004;24.868;2023-06-26T02:26:55;13.73;;;8.32;;
6531;SDS011;3299;42.004;24.868;2023-06-26T02:29:22;15.25;;;8.18;;
6531;SDS011;3299;42.004;24.868;2023-06-26T02:31:47;11.82;;;7.82;;
6531;SDS011;3299;42.004;24.868;2023-06-26T02:34:13;14.52;;;8.23;;
6531;SDS011;3299;42.004;24.868;2023-06-26T02:36:39;12.40;;;8.80;;
6531;SDS011;3299;42.004;24.868;2023-06-26T02:39:04;13.43;;;8.35;;
6531;SDS011;3299;42.004;24.868;2023-06-26T02:41:30;11.95;;;7.55;;
6531;SDS011;3299;42.004;24.868;2023-06-26T02:43:55;13.05;;;8.55;;
6531;SDS011;3299;42.004;24.868;2023-06-26T02:46:21;9.68;;;7.78;;
6531;SDS011;3299;42.004;24.868;2023-06-26T02:48:46;13.88;;;7.47;;
6531;SDS011;3299;42.004;24.868;2023-06-26T02:51:11;13.38;;;7.85;;
6531;SDS011;3299;42.004;24.868;2023-06-26T02:53:37;15.30;;;8.25;;
6531;SDS011;3299;42.004;24.868;2023-06-26T02:56:02;10.18;;;7.90;;
6531;SDS011;3299;42.004;24.868;2023-06-26T02:58:28;13.93;;;7.63;;
6531;SDS011;3299;42.004;24.868;2023-06-26T03:00:53;9.90;;;7.22;;
6531;SDS011;3299;42.004;24.868;2023-06-26T03:03:18;12.05;;;7.40;;
6531;SDS011;3299;42.004;24.868;2023-06-26T03:05:44;13.88;;;7.40;;
6531;SDS011;3299;42.004;24.868;2023-06-26T03:08:09;14.50;;;7.68;;
6531;SDS011;3299;42.004;24.868;2023-06-26T03:10:35;10.00;;;7.93;;
6531;SDS011;3299;42.004;24.868;2023-06-26T03:13:00;14.68;;;8.00;;
6531;SDS011;3299;42.004;24.868;2023-06-26T03:15:26;9.23;;;7.07;;
6531;SDS011;3299;42.004;24.868;2023-06-26T03:17:51;10.10;;;7.13;;
6531;SDS011;3299;42.004;24.868;2023-06-26T03:20:17;9.50;;;7.13;;
6531;SDS011;3299;42.004;24.868;2023-06-26T03:22:42;13.82;;;7.38;;
6531;SDS011;3299;42.004;24.868;2023-06-26T03:25:07;11.13;;;7.22;;
6531;SDS011;3299;42.004;24.868;2023-06-26T03:27:33;9.40;;;7.18;;
6531;SDS011;3299;42.004;24.868;2023-06-26T03:29:58;12.43;;;6.60;;
6531;SDS011;3299;42.004;24.868;2023-06-26T03:32:24;12.15;;;7.20;;
6531;SDS011;3299;42.004;24.868;2023-06-26T03:34:49;10.40;;;7.22;;
6531;SDS011;3299;42.004;24.868;2023-06-26T03:37:15;10.27;;;7.25;;
6531;SDS011;3299;42.004;24.868;2023-06-26T03:39:40;14.63;;;8.00;;
6531;SDS011;3299;42.004;24.868;2023-06-26T03:42:06;12.05;;;8.85;;
6531;SDS011;3299;42.004;24.868;2023-06-26T03:44:32;14.13;;;7.45;;
6531;SDS011;3299;42.004;24.868;2023-06-26T03:46:57;13.77;;;9.25;;
6531;SDS011;3299;42.004;24.868;2023-06-26T03:49:23;11.30;;;7.97;;
6531;SDS011;3299;42.004;24.868;2023-06-26T03:51:48;7.35;;;6.65;;
6531;SDS011;3299;42.004;24.868;2023-06-26T03:54:14;10.30;;;7.35;;
6531;SDS011;3299;42.004;24.868;2023-06-26T03:56:39;13.45;;;7.85;;
6531;SDS011;3299;42.004;24.868;2023-06-26T03:59:05;8.43;;;7.38;;
6531;SDS011;3299;42.004;24.868;2023-06-26T04:01:30;9.77;;;8.20;;
6531;SDS011;3299;42.004;24.868;2023-06-26T04:03:56;12.45;;;8.23;;
6531;SDS011;3299;42.004;24.868;2023-06-26T04:06:21;9.43;;;7.38;;
6531;SDS011;3299;42.004;24.868;2023-06-26T04:08:46;11.07;;;6.93;;
6531;SDS011;3299;42.004;24.868;2023-06-26T04:11:13;8.75;;;7.13;;
6531;SDS011;3299;42.004;24.868;2023-06-26T04:13:38;8.77;;;7.70;;
6531;SDS011;3299;42.004;24.868;2023-06-26T04:16:04;10.00;;;7.03;;
6531;SDS011;3299;42.004;24.868;2023-06-26T04:18:29;10.75;;;7.22;;
6531;SDS011;3299;42.004;24.868;2023-06-26T04:21:04;8.82;;;7.43;;
6531;SDS011;3299;42.004;24.868;2023-06-26T04:23:34;9.40;;;7.20;;
6531;SDS011;3299;42.004;24.868;2023-06-26T04:26:00;8.15;;;6.63;;
6531;SDS011;3299;42.004;24.868;2023-06-26T04:28:27;7.55;;;6.75;;
6531;SDS011;3299;42.004;24.868;2023-06-26T04:30:53;7.90;;;6.38;;
6531;SDS011;3299;42.004;24.868;2023-06-26T04:33:18;7.70;;;6.13;;
6531;SDS011;3299;42.004;24.868;2023-06-26T04:35:44;7.82;;;6.38;;
6531;SDS011;3299;42.004;24.868;2023-06-26T04:38:10;17.33;;;8.45;;
6531;SDS011;3299;42.004;24.868;2023-06-26T04:40:35;10.50;;;7.78;;
6531;SDS011;3299;42.004;24.868;2023-06-26T04:43:01;11.40;;;7.18;;
6531;SDS011;3299;42.004;24.868;2023-06-26T04:45:26;9.07;;;7.32;;
6531;SDS011;3299;42.004;24.868;2023-06-26T04:47:51;12.48;;;7.50;;
6531;SDS011;3299;42.004;24.868;2023-06-26T04:50:17;9.27;;;7.40;;
6531;SDS011;3299;42.004;24.868;2023-06-26T04:52:44;11.48;;;7.35;;
6531;SDS011;3299;42.004;24.868;2023-06-26T04:55:09;7.85;;;6.82;;
6531;SDS011;3299;42.004;24.868;2023-06-26T04:57:34;7.75;;;6.72;;
6531;SDS011;3299;42.004;24.868;2023-06-26T05:00:00;9.05;;;6.55;;
6531;SDS011;3299;42.004;24.868;2023-06-26T05:02:25;9.40;;;5.97;;
6531;SDS011;3299;42.004;24.868;2023-06-26T05:04:51;9.65;;;6.38;;
6531;SDS011;3299;42.004;24.868;2023-06-26T05:07:17;8.25;;;6.55;;
6531;SDS011;3299;42.004;24.868;2023-06-26T05:09:42;11.50;;;5.60;;
6531;SDS011;3299;42.004;24.868;2023-06-26T05:12:08;8.95;;;5.70;;
6531;SDS011;3299;42.004;24.868;2023-06-26T05:14:33;7.90;;;5.80;;
6531;SDS011;3299;42.004;24.868;2023-06-26T05:16:59;12.02;;;5.82;;
6531;SDS011;3299;42.004;24.868;2023-06-26T05:19:24;7.70;;;6.38;;
6531;SDS011;3299;42.004;24.868;2023-06-26T05:21:49;6.72;;;5.70;;
6531;SDS011;3299;42.004;24.868;2023-06-26T05:24:17;8.80;;;5.95;;
6531;SDS011;3299;42.004;24.868;2023-06-26T05:26:44;6.32;;;5.78;;
6531;SDS011;3299;42.004;24.868;2023-06-26T05:29:10;8.07;;;7.28;;
6531;SDS011;3299;42.004;24.868;2023-06-26T05:31:35;8.48;;;7.13;;
6531;SDS011;3299;42.004;24.868;2023-06-26T05:34:05;8.05;;;6.78;;
6531;SDS011;3299;42.004;24.868;2023-06-26T05:36:33;7.88;;;6.68;;
6531;SDS011;3299;42.004;24.868;2023-06-26T05:38:59;9.80;;;7.13;;
6531;SDS011;3299;42.004;24.868;2023-06-26T05:41:25;9.93;;;7.40;;
6531;SDS011;3299;42.004;24.868;2023-06-26T05:43:50;9.00;;;6.68;;
6531;SDS011;3299;42.004;24.868;2023-06-26T05:46:16;8.50;;;7.03;;
6531;SDS011;3299;42.004;24.868;2023-06-26T05:48:41;9.70;;;6.72;;
6531;SDS011;3299;42.004;24.868;2023-06-26T05:51:07;7.55;;;6.45;;
6531;SDS011;3299;42.004;24.868;2023-06-26T05:53:33;9.20;;;7.07;;
6531;SDS011;3299;42.004;24.868;2023-06-26T05:55:58;9.25;;;6.90;;
6531;SDS011;3299;42.004;24.868;2023-06-26T05:58:25;9.02;;;7.28;;
6531;SDS011;3299;42.004;24.868;2023-06-26T06:00:54;7.32;;;6.63;;
6531;SDS011;3299;42.004;24.868;2023-06-26T06:03:20;9.13;;;7.38;;
6531;SDS011;3299;42.004;24.868;2023-06-26T06:05:45;8.10;;;7.35;;
6531;SDS011;3299;42.004;24.868;2023-06-26T06:08:12;7.53;;;6.20;;
6531;SDS011;3299;42.004;24.868;2023-06-26T06:10:37;7.05;;;6.32;;
6531;SDS011;3299;42.004;24.868;2023-06-26T06:13:03;8.25;;;6.38;;
6531;SDS011;3299;42.004;24.868;2023-06-26T06:15:28;11.45;;;6.82;;
6531;SDS011;3299;42.004;24.868;2023-06-26T06:17:54;8.10;;;6.60;;
6531;SDS011;3299;42.004;24.868;2023-06-26T06:20:19;8.70;;;6.70;;
6531;SDS011;3299;42.004;24.868;2023-06-26T06:22:45;8.40;;;6.70;;
6531;SDS011;3299;42.004;24.868;2023-06-26T06:25:10;8.02;;;6.53;;
6531;SDS011;3299;42.004;24.868;2023-06-26T06:27:36;7.68;;;6.25;;
6531;SDS011;3299;42.004;24.868;2023-06-26T06:30:01;7.93;;;6.25;;
6531;SDS011;3299;42.004;24.868;2023-06-26T06:32:27;12.05;;;6.40;;
6531;SDS011;3299;42.004;24.868;2023-06-26T06:34:53;7.78;;;6.53;;
6531;SDS011;3299;42.004;24.868;2023-06-26T06:37:18;9.07;;;6.70;;
6531;SDS011;3299;42.004;24.868;2023-06-26T06:39:44;8.15;;;6.57;;
6531;SDS011;3299;42.004;24.868;2023-06-26T06:42:09;6.47;;;5.82;;
6531;SDS011;3299;42.004;24.868;2023-06-26T06:44:35;9.93;;;6.18;;
6531;SDS011;3299;42.004;24.868;2023-06-26T06:47:00;7.57;;;6.68;;
6531;SDS011;3299;42.004;24.868;2023-06-26T06:49:25;7.25;;;6.32;;
6531;SDS011;3299;42.004;24.868;2023-06-26T06:51:51;6.85;;;6.15;;
6531;SDS011;3299;42.004;24.868;2023-06-26T06:54:16;7.55;;;6.43;;
6531;SDS011;3299;42.004;24.868;2023-06-26T06:56:42;8.57;;;6.65;;
6531;SDS011;3299;42.004;24.868;2023-06-26T06:59:08;9.07;;;6.20;;
6531;SDS011;3299;42.004;24.868;2023-06-26T07:01:33;7.35;;;5.97;;
6531;SDS011;3299;42.004;24.868;2023-06-26T07:03:59;9.32;;;6.10;;
6531;SDS011;3299;42.004;24.868;2023-06-26T07:06:24;7.38;;;6.00;;
6531;SDS011;3299;42.004;24.868;2023-06-26T07:08:50;7.65;;;6.07;;
6531;SDS011;3299;42.004;24.868;2023-06-26T07:11:15;6.75;;;5.88;;
6531;SDS011;3299;42.004;24.868;2023-06-26T07:13:41;13.07;;;6.57;;
6531;SDS011;3299;42.004;24.868;2023-06-26T07:16:06;9.20;;;6.38;;
6531;SDS011;3299;42.004;24.868;2023-06-26T07:18:32;8.65;;;6.25;;
6531;SDS011;3299;42.004;24.868;2023-06-26T07:20:58;7.95;;;5.70;;
6531;SDS011;3299;42.004;24.868;2023-06-26T07:23:23;6.63;;;6.03;;
6531;SDS011;3299;42.004;24.868;2023-06-26T07:25:48;6.53;;;5.72;;
6531;SDS011;3299;42.004;24.868;2023-06-26T07:28:14;7.70;;;6.50;;
6531;SDS011;3299;42.004;24.868;2023-06-26T07:30:39;8.27;;;6.13;;
6531;SDS011;3299;42.004;24.868;2023-06-26T07:33:05;9.27;;;6.10;;
6531;SDS011;3299;42.004;24.868;2023-06-26T07:35:30;11.02;;;6.00;;
6531;SDS011;3299;42.004;24.868;2023-06-26T07:37:56;6.90;;;5.65;;
6531;SDS011;3299;42.004;24.868;2023-06-26T07:40:21;9.25;;;6.22;;
6531;SDS011;3299;42.004;24.868;2023-06-26T07:42:47;7.53;;;5.80;;
6531;SDS011;3299;42.004;24.868;2023-06-26T07:45:12;7.38;;;6.05;;
6531;SDS011;3299;42.004;24.868;2023-06-26T07:47:38;7.45;;;5.85;;
6531;SDS011;3299;42.004;24.868;2023-06-26T07:50:04;11.45;;;6.40;;
6531;SDS011;3299;42.004;24.868;2023-06-26T07:52:30;9.95;;;6.07;;
6531;SDS011;3299;42.004;24.868;2023-06-26T07:54:55;9.70;;;5.72;;
6531;SDS011;3299;42.004;24.868;2023-06-26T07:57:21;8.57;;;5.13;;
6531;SDS011;3299;42.004;24.868;2023-06-26T07:59:47;5.80;;;5.30;;
6531;SDS011;3299;42.004;24.868;2023-06-26T08:02:12;6.72;;;5.28;;
6531;SDS011;3299;42.004;24.868;2023-06-26T08:04:38;8.68;;;5.80;;
6531;SDS011;3299;42.004;24.868;2023-06-26T08:07:03;5.25;;;4.68;;
6531;SDS011;3299;42.004;24.868;2023-06-26T08:09:29;7.00;;;5.15;;
6531;SDS011;3299;42.004;24.868;2023-06-26T08:11:55;5.18;;;4.68;;
6531;SDS011;3299;42.004;24.868;2023-06-26T08:14:21;6.38;;;5.53;;
6531;SDS011;3299;42.004;24.868;2023-06-26T08:16:48;5.97;;;5.35;;
6531;SDS011;3299;42.004;24.868;2023-06-26T08:19:14;8.93;;;5.55;;
6531;SDS011;3299;42.004;24.868;2023-06-26T08:21:41;6.55;;;5.25;;
6531;SDS011;3299;42.004;24.868;2023-06-26T08:24:07;5.97;;;5.38;;
6531;SDS011;3299;42.004;24.868;2023-06-26T08:26:33;7.55;;;5.35;;
6531;SDS011;3299;42.004;24.868;2023-06-26T08:28:59;7.10;;;5.35;;
6531;SDS011;3299;42.004;24.868;2023-06-26T08:31:24;6.18;;;5.45;;
6531;SDS011;3299;42.004;24.868;2023-06-26T08:33:50;5.60;;;5.10;;
6531;SDS011;3299;42.004;24.868;2023-06-26T08:36:15;6.82;;;5.63;;
6531;SDS011;3299;42.004;24.868;2023-06-26T08:38:41;6.43;;;5.60;;
6531;SDS011;3299;42.004;24.868;2023-06-26T08:41:06;7.53;;;5.75;;
6531;SDS011;3299;42.004;24.868;2023-06-26T08:43:33;8.07;;;5.50;;
6531;SDS011;3299;42.004;24.868;2023-06-26T08:45:59;6.15;;;5.55;;
6531;SDS011;3299;42.004;24.868;2023-06-26T08:48:25;5.50;;;5.03;;
6531;SDS011;3299;42.004;24.868;2023-06-26T08:50:52;6.43;;;5.18;;
6531;SDS011;3299;42.004;24.868;2023-06-26T08:56:09;5.32;;;4.85;;
6531;SDS011;3299;42.004;24.868;2023-06-26T08:58:38;5.82;;;5.07;;
6531;SDS011;3299;42.004;24.868;2023-06-26T09:01:04;6.97;;;5.80;;
6531;SDS011;3299;42.004;24.868;2023-06-26T09:03:29;6.25;;;5.63;;
6531;SDS011;3299;42.004;24.868;2023-06-26T09:05:56;12.10;;;6.40;;
6531;SDS011;3299;42.004;24.868;2023-06-26T09:08:21;8.38;;;6.18;;
6531;SDS011;3299;42.004;24.868;2023-06-26T09:10:47;8.43;;;5.85;;
6531;SDS011;3299;42.004;24.868;2023-06-26T09:13:12;8.43;;;5.95;;
6531;SDS011;3299;42.004;24.868;2023-06-26T09:15:38;8.73;;;5.30;;
6531;SDS011;3299;42.004;24.868;2023-06-26T09:18:07;8.73;;;6.50;;
6531;SDS011;3299;42.004;24.868;2023-06-26T09:20:33;8.98;;;5.32;;
6531;SDS011;3299;42.004;24.868;2023-06-26T09:22:58;10.20;;;6.90;;
6531;SDS011;3299;42.004;24.868;2023-06-26T09:25:25;10.05;;;6.72;;
6531;SDS011;3299;42.004;24.868;2023-06-26T09:27:51;9.95;;;6.93;;
6531;SDS011;3299;42.004;24.868;2023-06-26T09:30:17;11.00;;;6.90;;
6531;SDS011;3299;42.004;24.868;2023-06-26T09:32:43;9.05;;;6.78;;
6531;SDS011;3299;42.004;24.868;2023-06-26T09:35:09;10.10;;;6.72;;
6531;SDS011;3299;42.004;24.868;2023-06-26T09:37:35;8.88;;;7.05;;
6531;SDS011;3299;42.004;24.868;2023-06-26T09:40:01;7.45;;;6.60;;
6531;SDS011;3299;42.004;24.868;2023-06-26T09:42:26;9.50;;;6.95;;
6531;SDS011;3299;42.004;24.868;2023-06-26T09:44:52;9.82;;;7.38;;
6531;SDS011;3299;42.004;24.868;2023-06-26T09:47:19;13.57;;;7.68;;
6531;SDS011;3299;42.004;24.868;2023-06-26T09:49:44;7.35;;;6.57;;
6531;SDS011;3299;42.004;24.868;2023-06-26T09:52:13;7.82;;;7.00;;
6531;SDS011;3299;42.004;24.868;2023-06-26T09:54:40;8.48;;;6.88;;
6531;SDS011;3299;42.004;24.868;2023-06-26T09:57:09;7.35;;;6.18;;
6531;SDS011;3299;42.004;24.868;2023-06-26T09:59:35;8.95;;;6.65;;
6531;SDS011;3299;42.004;24.868;2023-06-26T10:02:01;8.90;;;6.45;;
6531;SDS011;3299;42.004;24.868;2023-06-26T10:04:27;8.02;;;6.72;;
6531;SDS011;3299;42.004;24.868;2023-06-26T10:06:54;7.82;;;7.13;;
6531;SDS011;3299;42.004;24.868;2023-06-26T10:09:22;10.18;;;6.70;;
6531;SDS011;3299;42.004;24.868;2023-06-26T10:14:21;6.65;;;6.03;;
6531;SDS011;3299;42.004;24.868;2023-06-26T10:16:49;8.48;;;7.55;;
6531;SDS011;3299;42.004;24.868;2023-06-26T10:19:16;23.85;;;8.38;;
6531;SDS011;3299;42.004;24.868;2023-06-26T10:21:50;15.07;;;8.07;;
6531;SDS011;3299;42.004;24.868;2023-06-26T10:24:19;10.75;;;7.38;;
6531;SDS011;3299;42.004;24.868;2023-06-26T10:26:48;9.70;;;6.68;;
6531;SDS011;3299;42.004;24.868;2023-06-26T10:29:16;6.60;;;5.50;;
6531;SDS011;3299;42.004;24.868;2023-06-26T10:31:49;5.93;;;5.00;;
6531;SDS011;3299;42.004;24.868;2023-06-26T10:34:16;4.78;;;4.35;;
6531;SDS011;3299;42.004;24.868;2023-06-26T10:36:42;6.60;;;5.18;;
6531;SDS011;3299;42.004;24.868;2023-06-26T10:39:07;11.73;;;4.80;;
6531;SDS011;3299;42.004;24.868;2023-06-26T10:41:40;13.45;;;9.77;;
6531;SDS011;3299;42.004;24.868;2023-06-26T10:44:10;19.85;;;10.98;;
6531;SDS011;3299;42.004;24.868;2023-06-26T10:46:49;13.27;;;7.75;;
6531;SDS011;3299;42.004;24.868;2023-06-26T10:49:15;7.65;;;6.75;;
6531;SDS011;3299;42.004;24.868;2023-06-26T10:51:47;9.75;;;7.68;;
6531;SDS011;3299;42.004;24.868;2023-06-26T10:54:17;10.27;;;7.65;;
6531;SDS011;3299;42.004;24.868;2023-06-26T10:56:44;11.40;;;7.53;;
6531;SDS011;3299;42.004;24.868;2023-06-26T10:59:19;10.85;;;7.25;;
6531;SDS011;3299;42.004;24.868;2023-06-26T11:01:47;8.50;;;6.32;;
6531;SDS011;3299;42.004;24.868;2023-06-26T11:04:22;8.10;;;6.22;;
6531;SDS011;3299;42.004;24.868;2023-06-26T11:07:17;6.70;;;6.10;;
6531;SDS011;3299;42.004;24.868;2023-06-26T11:13:03;8.95;;;6.43;;
6531;SDS011;3299;42.004;24.868;2023-06-26T11:15:24;8.45;;;6.38;;
6531;SDS011;3299;42.004;24.868;2023-06-26T11:17:51;6.57;;;5.90;;
6531;SDS011;3299;42.004;24.868;2023-06-26T11:20:17;10.85;;;6.40;;
6531;SDS011;3299;42.004;24.868;2023-06-26T11:22:43;16.27;;;8.13;;
6531;SDS011;3299;42.004;24.868;2023-06-26T11:25:09;12.27;;;6.90;;
6531;SDS011;3299;42.004;24.868;2023-06-26T11:27:39;13.63;;;7.05;;
6531;SDS011;3299;42.004;24.868;2023-06-26T11:30:06;7.15;;;6.45;;
6531;SDS011;3299;42.004;24.868;2023-06-26T11:32:32;6.68;;;6.05;;
6531;SDS011;3299;42.004;24.868;2023-06-26T11:34:59;8.13;;;5.93;;
6531;SDS011;3299;42.004;24.868;2023-06-26T11:37:25;8.65;;;5.65;;
6531;SDS011;3299;42.004;24.868;2023-06-26T11:39:50;7.68;;;5.07;;
6531;SDS011;3299;42.004;24.868;2023-06-26T11:42:16;5.80;;;5.28;;
6531;SDS011;3299;42.004;24.868;2023-06-26T11:44:43;6.28;;;5.65;;
6531;SDS011;3299;42.004;24.868;2023-06-26T11:47:18;6.55;;;5.85;;
6531;SDS011;3299;42.004;24.868;2023-06-26T11:49:46;5.90;;;5.40;;
6531;SDS011;3299;42.004;24.868;2023-06-26T11:52:13;8.35;;;5.35;;
6531;SDS011;3299;42.004;24.868;2023-06-26T11:54:39;6.25;;;4.90;;
6531;SDS011;3299;42.004;24.868;2023-06-26T11:57:05;8.82;;;5.97;;
6531;SDS011;3299;42.004;24.868;2023-06-26T11:59:37;8.32;;;5.63;;
6531;SDS011;3299;42.004;24.868;2023-06-26T12:02:07;15.60;;;7.65;;
6531;SDS011;3299;42.004;24.868;2023-06-26T12:04:35;12.00;;;7.45;;
6531;SDS011;3299;42.004;24.868;2023-06-26T12:07:04;6.32;;;5.05;;
6531;SDS011;3299;42.004;24.868;2023-06-26T12:09:33;7.93;;;5.13;;
6531;SDS011;3299;42.004;24.868;2023-06-26T12:11:59;6.68;;;5.72;;
6531;SDS011;3299;42.004;24.868;2023-06-26T12:14:25;7.88;;;5.45;;
6531;SDS011;3299;42.004;24.868;2023-06-26T12:16:53;7.30;;;6.47;;
6531;SDS011;3299;42.004;24.868;2023-06-26T12:19:23;6.45;;;5.07;;
6531;SDS011;3299;42.004;24.868;2023-06-26T12:21:53;7.07;;;5.78;;
6531;SDS011;3299;42.004;24.868;2023-06-26T12:24:21;5.53;;;4.95;;
6531;SDS011;3299;42.004;24.868;2023-06-26T12:26:51;5.47;;;4.97;;
6531;SDS011;3299;42.004;24.868;2023-06-26T12:29:24;5.28;;;4.78;;
6531;SDS011;3299;42.004;24.868;2023-06-26T12:31:56;5.75;;;4.75;;
6531;SDS011;3299;42.004;24.868;2023-06-26T12:34:28;6.75;;;4.88;;
6531;SDS011;3299;42.004;24.868;2023-06-26T12:37:01;9.02;;;5.25;;
6531;SDS011;3299;42.004;24.868;2023-06-26T12:39:28;7.15;;;4.93;;
6531;SDS011;3299;42.004;24.868;2023-06-26T12:41:55;7.80;;;5.18;;
6531;SDS011;3299;42.004;24.868;2023-06-26T12:44:26;9.00;;;5.25;;
6531;SDS011;3299;42.004;24.868;2023-06-26T12:46:54;9.02;;;5.03;;
6531;SDS011;3299;42.004;24.868;2023-06-26T12:49:28;7.50;;;4.95;;
6531;SDS011;3299;42.004;24.868;2023-06-26T12:52:00;8.68;;;5.80;;
6531;SDS011;3299;42.004;24.868;2023-06-26T12:54:27;5.28;;;4.63;;
6531;SDS011;3299;42.004;24.868;2023-06-26T12:56:53;6.53;;;5.13;;
6531;SDS011;3299;42.004;24.868;2023-06-26T12:59:18;7.60;;;4.97;;
6531;SDS011;3299;42.004;24.868;2023-06-26T13:01:44;5.97;;;5.05;;
6531;SDS011;3299;42.004;24.868;2023-06-26T13:04:10;6.65;;;5.20;;
6531;SDS011;3299;42.004;24.868;2023-06-26T13:06:35;6.47;;;5.05;;
6531;SDS011;3299;42.004;24.868;2023-06-26T13:09:01;10.25;;;4.93;;
6531;SDS011;3299;42.004;24.868;2023-06-26T13:11:29;5.88;;;5.28;;
6531;SDS011;3299;42.004;24.868;2023-06-26T13:13:55;8.10;;;5.03;;
6531;SDS011;3299;42.004;24.868;2023-06-26T13:16:21;6.93;;;5.07;;
6531;SDS011;3299;42.004;24.868;2023-06-26T13:18:46;8.65;;;5.97;;
6531;SDS011;3299;42.004;24.868;2023-06-26T13:21:12;8.52;;;6.28;;
6531;SDS011;3299;42.004;24.868;2023-06-26T13:23:38;8.10;;;5.75;;
6531;SDS011;3299;42.004;24.868;2023-06-26T13:26:04;11.25;;;5.72;;
6531;SDS011;3299;42.004;24.868;2023-06-26T13:28:30;8.23;;;6.07;;
6531;SDS011;3299;42.004;24.868;2023-06-26T13:30:56;7.93;;;6.20;;
6531;SDS011;3299;42.004;24.868;2023-06-26T13:33:21;8.73;;;5.60;;
6531;SDS011;3299;42.004;24.868;2023-06-26T13:35:50;10.70;;;5.47;;
6531;SDS011;3299;42.004;24.868;2023-06-26T13:38:19;11.43;;;6.38;;
6531;SDS011;3299;42.004;24.868;2023-06-26T13:40:49;9.35;;;6.65;;
6531;SDS011;3299;42.004;24.868;2023-06-26T13:43:19;7.97;;;5.53;;
6531;SDS011;3299;42.004;24.868;2023-06-26T13:45:45;14.63;;;6.57;;
6531;SDS011;3299;42.004;24.868;2023-06-26T13:48:11;15.48;;;7.40;;
6531;SDS011;3299;42.004;24.868;2023-06-26T13:50:36;7.63;;;5.00;;
6531;SDS011;3299;42.004;24.868;2023-06-26T13:53:02;7.88;;;5.43;;
6531;SDS011;3299;42.004;24.868;2023-06-26T13:55:27;10.85;;;4.85;;
6531;SDS011;3299;42.004;24.868;2023-06-26T13:57:53;7.53;;;5.15;;
6531;SDS011;3299;42.004;24.868;2023-06-26T14:00:18;6.18;;;4.38;;
6531;SDS011;3299;42.004;24.868;2023-06-26T14:02:47;8.98;;;4.68;;
6531;SDS011;3299;42.004;24.868;2023-06-26T14:05:12;5.68;;;4.88;;
6531;SDS011;3299;42.004;24.868;2023-06-26T14:07:38;7.93;;;4.25;;
6531;SDS011;3299;42.004;24.868;2023-06-26T14:10:04;7.07;;;4.55;;
6531;SDS011;3299;42.004;24.868;2023-06-26T14:12:30;8.25;;;4.30;;
6531;SDS011;3299;42.004;24.868;2023-06-26T14:14:56;6.35;;;5.05;;
6531;SDS011;3299;42.004;24.868;2023-06-26T14:17:22;4.47;;;4.07;;
6531;SDS011;3299;42.004;24.868;2023-06-26T14:19:49;7.05;;;4.38;;
6531;SDS011;3299;42.004;24.868;2023-06-26T14:22:14;7.03;;;4.40;;
6531;SDS011;3299;42.004;24.868;2023-06-26T14:24:40;3.97;;;3.58;;
6531;SDS011;3299;42.004;24.868;2023-06-26T14:27:05;6.38;;;3.22;;
6531;SDS011;3299;42.004;24.868;2023-06-26T14:29:31;4.00;;;3.30;;
6531;SDS011;3299;42.004;24.868;2023-06-26T14:31:56;3.42;;;2.83;;
6531;SDS011;3299;42.004;24.868;2023-06-26T14:34:22;3.78;;;3.13;;
6531;SDS011;3299;42.004;24.868;2023-06-26T14:36:47;5.63;;;3.63;;
6531;SDS011;3299;42.004;24.868;2023-06-26T14:39:13;5.00;;;3.67;;
6531;SDS011;3299;42.004;24.868;2023-06-26T14:41:38;7.57;;;3.80;;
6531;SDS011;3299;42.004;24.868;2023-06-26T14:44:04;3.75;;;3.38;;
6531;SDS011;3299;42.004;24.868;2023-06-26T14:46:29;5.00;;;3.47;;
6531;SDS011;3299;42.004;24.868;2023-06-26T14:48:55;4.03;;;2.97;;
6531;SDS011;3299;42.004;24.868;2023-06-26T14:51:20;3.72;;;3.13;;
6531;SDS011;3299;42.004;24.868;2023-06-26T14:53:47;3.45;;;3.15;;
6531;SDS011;3299;42.004;24.868;2023-06-26T14:56:12;3.55;;;3.22;;
6531;SDS011;3299;42.004;24.868;2023-06-26T14:58:38;5.15;;;3.47;;
6531;SDS011;3299;42.004;24.868;2023-06-26T15:01:03;6.13;;;3.70;;
6531;SDS011;3299;42.004;24.868;2023-06-26T15:03:29;8.10;;;5.88;;
6531;SDS011;3299;42.004;24.868;2023-06-26T15:05:54;6.30;;;4.25;;
6531;SDS011;3299;42.004;24.868;2023-06-26T15:08:20;4.97;;;4.18;;